sensor_id;sensor_type;location;lat;lon;timestamp;P1;durP1;ratioP1;P2;durP2;ratioP2
21894;SDS011;11112;51.270;7.224;2023-06-22T00:02:20;4.60;;;3.58;;
21894;SDS011;11112;51.270;7.224;2023-06-22T00:04:47;5.32;;;3.70;;
21894;SDS011;11112;51.270;7.224;2023-06-22T00:07:14;5.80;;;4.10;;
21894;SDS011;11112;51.270;7.224;2023-06-22T00:09:43;4.40;;;3.63;;
21894;SDS011;11112;51.270;7.224;2023-06-22T00:12:10;6.90;;;3.60;;
21894;SDS011;11112;51.270;7.224;2023-06-22T00:14:37;6.05;;;3.88;;
21894;SDS011;11112;51.270;7.224;2023-06-22T00:17:04;8.02;;;3.80;;
21894;SDS011;11112;51.270;7.224;2023-06-22T00:19:31;4.13;;;3.72;;
21894;SDS011;11112;51.270;7.224;2023-06-22T00:22:00;5.68;;;3.72;;
21894;SDS011;11112;51.270;7.224;2023-06-22T00:24:28;7.30;;;3.55;;
21894;SDS011;11112;51.270;7.224;2023-06-22T00:26:57;4.30;;;3.30;;
21894;SDS011;11112;51.270;7.224;2023-06-22T00:29:24;4.22;;;3.33;;
21894;SDS011;11112;51.270;7.224;2023-06-22T00:31:51;5.38;;;3.35;;
21894;SDS011;11112;51.270;7.224;2023-06-22T00:34:18;7.53;;;3.30;;
21894;SDS011;11112;51.270;7.224;2023-06-22T00:36:45;7.20;;;3.63;;
21894;SDS011;11112;51.270;7.224;2023-06-22T00:39:12;6.00;;;4.10;;
21894;SDS011;11112;51.270;7.224;2023-06-22T00:41:39;6.35;;;4.00;;
21894;SDS011;11112;51.270;7.224;2023-06-22T00:44:08;5.97;;;4.15;;
21894;SDS011;11112;51.270;7.224;2023-06-22T00:46:35;6.32;;;4.18;;
21894;SDS011;11112;51.270;7.224;2023-06-22T00:49:02;6.25;;;4.22;;
21894;SDS011;11112;51.270;7.224;2023-06-22T00:51:30;7.78;;;4.45;;
21894;SDS011;11112;51.270;7.224;2023-06-22T00:53:58;5.45;;;4.20;;
21894;SDS011;11112;51.270;7.224;2023-06-22T00:56:25;7.28;;;4.10;;
21894;SDS011;11112;51.270;7.224;2023-06-22T00:58:55;6.88;;;4.10;;
21894;SDS011;11112;51.270;7.224;2023-06-22T01:01:24;7.80;;;4.43;;
21894;SDS011;11112;51.270;7.224;2023-06-22T01:03:51;4.72;;;4.20;;
21894;SDS011;11112;51.270;7.224;2023-06-22T01:06:21;5.20;;;4.35;;
21894;SDS011;11112;51.270;7.224;2023-06-22T01:08:59;5.30;;;3.92;;
21894;SDS011;11112;51.270;7.224;2023-06-22T01:11:35;6.20;;;3.88;;
21894;SDS011;11112;51.270;7.224;2023-06-22T01:14:11;5.70;;;3.88;;
21894;SDS011;11112;51.270;7.224;2023-06-22T01:16:43;5.55;;;4.03;;
21894;SDS011;11112;51.270;7.224;2023-06-22T01:19:16;6.82;;;3.90;;
21894;SDS011;11112;51.270;7.224;2023-06-22T01:21:58;6.72;;;4.20;;
21894;SDS011;11112;51.270;7.224;2023-06-22T01:24:30;6.40;;;4.20;;
21894;SDS011;11112;51.270;7.224;2023-06-22T01:27:07;6.38;;;4.03;;
21894;SDS011;11112;51.270;7.224;2023-06-22T01:29:49;6.07;;;4.10;;
21894;SDS011;11112;51.270;7.224;2023-06-22T01:32:27;6.55;;;4.22;;
21894;SDS011;11112;51.270;7.224;2023-06-22T01:34:57;8.15;;;4.00;;
21894;SDS011;11112;51.270;7.224;2023-06-22T01:37:27;5.70;;;4.20;;
21894;SDS011;11112;51.270;7.224;2023-06-22T01:39:57;6.38;;;4.13;;
21894;SDS011;11112;51.270;7.224;2023-06-22T01:42:25;7.20;;;4.18;;
21894;SDS011;11112;51.270;7.224;2023-06-22T01:44:54;7.22;;;3.78;;
21894;SDS011;11112;51.270;7.224;2023-06-22T01:47:22;6.82;;;3.97;;
21894;SDS011;11112;51.270;7.224;2023-06-22T01:49:50;7.70;;;3.92;;
21894;SDS011;11112;51.270;7.224;2023-06-22T01:52:18;7.30;;;3.70;;
21894;SDS011;11112;51.270;7.224;2023-06-22T01:54:46;6.05;;;4.10;;
21894;SDS011;11112;51.270;7.224;2023-06-22T01:57:13;6.63;;;4.13;;
21894;SDS011;11112;51.270;7.224;2023-06-22T01:59:42;6.68;;;4.10;;
21894;SDS011;11112;51.270;7.224;2023-06-22T02:02:20;6.47;;;3.88;;
21894;SDS011;11112;51.270;7.224;2023-06-22T02:04:54;5.65;;;4.05;;
21894;SDS011;11112;51.270;7.224;2023-06-22T02:07:28;6.43;;;4.25;;
21894;SDS011;11112;51.270;7.224;2023-06-22T02:10:06;6.32;;;4.00;;
21894;SDS011;11112;51.270;7.224;2023-06-22T02:12:34;5.05;;;3.75;;
21894;SDS011;11112;51.270;7.224;2023-06-22T02:15:03;7.38;;;3.45;;
21894;SDS011;11112;51.270;7.224;2023-06-22T02:17:33;5.05;;;3.67;;
21894;SDS011;11112;51.270;7.224;2023-06-22T02:20:01;7.00;;;3.88;;
21894;SDS011;11112;51.270;7.224;2023-06-22T02:22:33;5.65;;;4.07;;
21894;SDS011;11112;51.270;7.224;2023-06-22T02:25:00;6.35;;;4.05;;
21894;SDS011;11112;51.270;7.224;2023-06-22T02:27:27;6.43;;;4.43;;
21894;SDS011;11112;51.270;7.224;2023-06-22T02:29:54;6.57;;;4.10;;
21894;SDS011;11112;51.270;7.224;2023-06-22T02:32:21;7.07;;;4.07;;
21894;SDS011;11112;51.270;7.224;2023-06-22T02:34:50;7.07;;;4.32;;
21894;SDS011;11112;51.270;7.224;2023-06-22T02:37:18;6.43;;;4.28;;
21894;SDS011;11112;51.270;7.224;2023-06-22T02:39:45;5.75;;;4.15;;
21894;SDS011;11112;51.270;7.224;2023-06-22T02:42:12;7.15;;;4.40;;
21894;SDS011;11112;51.270;7.224;2023-06-22T02:44:40;6.45;;;4.60;;
21894;SDS011;11112;51.270;7.224;2023-06-22T02:47:07;7.20;;;5.88;;
21894;SDS011;11112;51.270;7.224;2023-06-22T02:49:34;6.53;;;5.07;;
21894;SDS011;11112;51.270;7.224;2023-06-22T02:52:03;8.45;;;5.85;;
21894;SDS011;11112;51.270;7.224;2023-06-22T02:54:30;6.80;;;4.80;;
21894;SDS011;11112;51.270;7.224;2023-06-22T02:56:58;10.07;;;5.55;;
21894;SDS011;11112;51.270;7.224;2023-06-22T02:59:27;6.47;;;4.88;;
21894;SDS011;11112;51.270;7.224;2023-06-22T03:01:54;8.30;;;4.90;;
21894;SDS011;11112;51.270;7.224;2023-06-22T03:04:21;5.78;;;4.85;;
21894;SDS011;11112;51.270;7.224;2023-06-22T03:06:48;9.45;;;4.90;;
21894;SDS011;11112;51.270;7.224;2023-06-22T03:09:17;7.15;;;4.45;;
21894;SDS011;11112;51.270;7.224;2023-06-22T03:11:44;6.25;;;4.70;;
21894;SDS011;11112;51.270;7.224;2023-06-22T03:14:11;5.88;;;4.30;;
21894;SDS011;11112;51.270;7.224;2023-06-22T03:16:39;6.93;;;4.47;;
21894;SDS011;11112;51.270;7.224;2023-06-22T03:19:06;5.75;;;4.20;;
21894;SDS011;11112;51.270;7.224;2023-06-22T03:21:33;6.70;;;4.47;;
21894;SDS011;11112;51.270;7.224;2023-06-22T03:24:02;7.13;;;4.38;;
21894;SDS011;11112;51.270;7.224;2023-06-22T03:26:31;7.15;;;4.78;;
21894;SDS011;11112;51.270;7.224;2023-06-22T03:28:59;7.05;;;4.90;;
21894;SDS011;11112;51.270;7.224;2023-06-22T03:31:26;8.55;;;5.22;;
21894;SDS011;11112;51.270;7.224;2023-06-22T03:33:53;11.23;;;5.82;;
21894;SDS011;11112;51.270;7.224;2023-06-22T03:36:21;7.47;;;5.25;;
21894;SDS011;11112;51.270;7.224;2023-06-22T03:38:49;8.45;;;5.25;;
21894;SDS011;11112;51.270;7.224;2023-06-22T03:41:17;7.70;;;4.95;;
21894;SDS011;11112;51.270;7.224;2023-06-22T03:43:46;7.22;;;5.20;;
21894;SDS011;11112;51.270;7.224;2023-06-22T03:46:13;8.85;;;5.22;;
21894;SDS011;11112;51.270;7.224;2023-06-22T03:48:40;12.45;;;5.60;;
21894;SDS011;11112;51.270;7.224;2023-06-22T03:51:07;13.77;;;5.68;;
21894;SDS011;11112;51.270;7.224;2023-06-22T03:53:34;10.35;;;5.22;;
21894;SDS011;11112;51.270;7.224;2023-06-22T03:56:01;12.13;;;5.35;;
21894;SDS011;11112;51.270;7.224;2023-06-22T03:58:29;14.40;;;5.82;;
21894;SDS011;11112;51.270;7.224;2023-06-22T04:01:00;12.70;;;5.65;;
21894;SDS011;11112;51.270;7.224;2023-06-22T04:03:27;11.45;;;5.53;;
21894;SDS011;11112;51.270;7.224;2023-06-22T04:05:54;15.00;;;6.20;;
21894;SDS011;11112;51.270;7.224;2023-06-22T04:08:21;15.80;;;5.93;;
21894;SDS011;11112;51.270;7.224;2023-06-22T04:10:48;19.90;;;6.13;;
21894;SDS011;11112;51.270;7.224;2023-06-22T04:13:15;14.88;;;5.60;;
21894;SDS011;11112;51.270;7.224;2023-06-22T04:15:42;15.57;;;7.03;;
21894;SDS011;11112;51.270;7.224;2023-06-22T04:18:10;14.05;;;6.07;;
21894;SDS011;11112;51.270;7.224;2023-06-22T04:20:38;14.38;;;5.88;;
21894;SDS011;11112;51.270;7.224;2023-06-22T04:23:05;12.10;;;6.05;;
21894;SDS011;11112;51.270;7.224;2023-06-22T04:25:32;15.07;;;5.90;;
21894;SDS011;11112;51.270;7.224;2023-06-22T04:27:59;14.85;;;6.20;;
21894;SDS011;11112;51.270;7.224;2023-06-22T04:30:28;18.88;;;6.20;;
21894;SDS011;11112;51.270;7.224;2023-06-22T04:32:56;12.70;;;5.90;;
21894;SDS011;11112;51.270;7.224;2023-06-22T04:35:25;10.77;;;5.82;;
21894;SDS011;11112;51.270;7.224;2023-06-22T04:37:53;14.57;;;5.82;;
21894;SDS011;11112;51.270;7.224;2023-06-22T04:40:24;12.23;;;6.13;;
21894;SDS011;11112;51.270;7.224;2023-06-22T04:42:51;12.77;;;6.40;;
21894;SDS011;11112;51.270;7.224;2023-06-22T04:45:21;11.07;;;5.40;;
21894;SDS011;11112;51.270;7.224;2023-06-22T04:47:48;14.50;;;6.30;;
21894;SDS011;11112;51.270;7.224;2023-06-22T04:50:15;11.93;;;5.45;;
21894;SDS011;11112;51.270;7.224;2023-06-22T04:52:44;9.60;;;5.80;;
21894;SDS011;11112;51.270;7.224;2023-06-22T04:55:11;13.77;;;5.68;;
21894;SDS011;11112;51.270;7.224;2023-06-22T04:57:43;9.55;;;6.05;;
21894;SDS011;11112;51.270;7.224;2023-06-22T05:00:14;9.82;;;6.38;;
21894;SDS011;11112;51.270;7.224;2023-06-22T05:02:43;10.88;;;6.13;;
21894;SDS011;11112;51.270;7.224;2023-06-22T05:05:12;16.00;;;6.10;;
21894;SDS011;11112;51.270;7.224;2023-06-22T05:10:13;18.77;;;6.75;;
21894;SDS011;11112;51.270;7.224;2023-06-22T05:12:40;13.38;;;6.50;;
21894;SDS011;11112;51.270;7.224;2023-06-22T05:15:08;12.70;;;6.45;;
21894;SDS011;11112;51.270;7.224;2023-06-22T05:17:35;14.55;;;6.13;;
21894;SDS011;11112;51.270;7.224;2023-06-22T05:20:06;12.38;;;6.47;;
21894;SDS011;11112;51.270;7.224;2023-06-22T05:22:35;9.80;;;6.05;;
21894;SDS011;11112;51.270;7.224;2023-06-22T05:25:04;10.55;;;5.90;;
21894;SDS011;11112;51.270;7.224;2023-06-22T05:27:34;12.38;;;6.15;;
21894;SDS011;11112;51.270;7.224;2023-06-22T05:30:05;9.30;;;6.50;;
21894;SDS011;11112;51.270;7.224;2023-06-22T05:32:34;9.57;;;6.10;;
21894;SDS011;11112;51.270;7.224;2023-06-22T05:35:02;15.90;;;6.32;;
21894;SDS011;11112;51.270;7.224;2023-06-22T05:37:30;8.82;;;6.22;;
21894;SDS011;11112;51.270;7.224;2023-06-22T05:39:57;9.95;;;6.20;;
21894;SDS011;11112;51.270;7.224;2023-06-22T05:42:25;12.85;;;6.70;;
21894;SDS011;11112;51.270;7.224;2023-06-22T05:44:52;9.38;;;6.35;;
21894;SDS011;11112;51.270;7.224;2023-06-22T05:47:19;11.82;;;6.15;;
21894;SDS011;11112;51.270;7.224;2023-06-22T05:49:48;12.15;;;6.38;;
21894;SDS011;11112;51.270;7.224;2023-06-22T05:52:15;14.10;;;6.95;;
21894;SDS011;11112;51.270;7.224;2023-06-22T05:54:42;12.63;;;7.20;;
21894;SDS011;11112;51.270;7.224;2023-06-22T05:57:09;12.38;;;6.82;;
21894;SDS011;11112;51.270;7.224;2023-06-22T05:59:38;11.57;;;6.82;;
21894;SDS011;11112;51.270;7.224;2023-06-22T06:02:05;11.50;;;6.60;;
21894;SDS011;11112;51.270;7.224;2023-06-22T06:04:32;14.90;;;6.80;;
21894;SDS011;11112;51.270;7.224;2023-06-22T06:06:59;12.50;;;6.57;;
21894;SDS011;11112;51.270;7.224;2023-06-22T06:09:27;13.65;;;7.10;;
21894;SDS011;11112;51.270;7.224;2023-06-22T06:11:54;15.35;;;6.68;;
21894;SDS011;11112;51.270;7.224;2023-06-22T06:14:21;9.77;;;6.47;;
21894;SDS011;11112;51.270;7.224;2023-06-22T06:16:50;12.25;;;6.97;;
21894;SDS011;11112;51.270;7.224;2023-06-22T06:19:17;9.63;;;6.72;;
21894;SDS011;11112;51.270;7.224;2023-06-22T06:21:44;12.32;;;7.22;;
21894;SDS011;11112;51.270;7.224;2023-06-22T06:24:11;11.45;;;6.68;;
21894;SDS011;11112;51.270;7.224;2023-06-22T06:26:38;11.43;;;6.90;;
21894;SDS011;11112;51.270;7.224;2023-06-22T06:29:05;12.07;;;6.53;;
21894;SDS011;11112;51.270;7.224;2023-06-22T06:31:33;12.55;;;6.93;;
21894;SDS011;11112;51.270;7.224;2023-06-22T06:34:02;10.25;;;6.88;;
21894;SDS011;11112;51.270;7.224;2023-06-22T06:36:30;12.85;;;6.60;;
21894;SDS011;11112;51.270;7.224;2023-06-22T06:38:57;13.20;;;7.10;;
21894;SDS011;11112;51.270;7.224;2023-06-22T06:41:24;13.20;;;6.80;;
21894;SDS011;11112;51.270;7.224;2023-06-22T06:43:51;11.68;;;6.78;;
21894;SDS011;11112;51.270;7.224;2023-06-22T06:46:18;10.77;;;6.32;;
21894;SDS011;11112;51.270;7.224;2023-06-22T06:48:47;9.55;;;6.20;;
21894;SDS011;11112;51.270;7.224;2023-06-22T06:51:15;13.77;;;6.80;;
21894;SDS011;11112;51.270;7.224;2023-06-22T06:53:42;13.07;;;7.00;;
21894;SDS011;11112;51.270;7.224;2023-06-22T06:56:09;12.82;;;7.20;;
21894;SDS011;11112;51.270;7.224;2023-06-22T06:58:37;12.75;;;6.97;;
21894;SDS011;11112;51.270;7.224;2023-06-22T07:01:07;9.50;;;6.95;;
21894;SDS011;11112;51.270;7.224;2023-06-22T07:03:34;14.02;;;7.28;;
21894;SDS011;11112;51.270;7.224;2023-06-22T07:06:01;12.20;;;7.15;;
21894;SDS011;11112;51.270;7.224;2023-06-22T07:08:30;11.55;;;7.10;;
21894;SDS011;11112;51.270;7.224;2023-06-22T07:11:00;11.02;;;7.50;;
21894;SDS011;11112;51.270;7.224;2023-06-22T07:13:27;11.60;;;7.57;;
21894;SDS011;11112;51.270;7.224;2023-06-22T07:15:54;14.40;;;8.02;;
21894;SDS011;11112;51.270;7.224;2023-06-22T07:18:21;13.60;;;7.78;;
21894;SDS011;11112;51.270;7.224;2023-06-22T07:20:51;13.77;;;8.25;;
21894;SDS011;11112;51.270;7.224;2023-06-22T07:23:19;10.15;;;7.75;;
21894;SDS011;11112;51.270;7.224;2023-06-22T07:25:47;11.23;;;7.88;;
21894;SDS011;11112;51.270;7.224;2023-06-22T07:28:14;15.32;;;8.43;;
21894;SDS011;11112;51.270;7.224;2023-06-22T07:30:41;13.60;;;8.35;;
21894;SDS011;11112;51.270;7.224;2023-06-22T07:33:08;11.73;;;8.02;;
21894;SDS011;11112;51.270;7.224;2023-06-22T07:35:35;11.05;;;7.90;;
21894;SDS011;11112;51.270;7.224;2023-06-22T07:38:02;14.02;;;7.65;;
21894;SDS011;11112;51.270;7.224;2023-06-22T07:40:29;11.85;;;7.75;;
21894;SDS011;11112;51.270;7.224;2023-06-22T07:42:58;13.52;;;9.07;;
21894;SDS011;11112;51.270;7.224;2023-06-22T07:45:25;17.40;;;9.43;;
21894;SDS011;11112;51.270;7.224;2023-06-22T07:47:52;14.00;;;9.85;;
21894;SDS011;11112;51.270;7.224;2023-06-22T07:50:19;14.05;;;9.70;;
21894;SDS011;11112;51.270;7.224;2023-06-22T07:52:46;13.65;;;9.60;;
21894;SDS011;11112;51.270;7.224;2023-06-22T07:55:13;16.90;;;9.98;;
21894;SDS011;11112;51.270;7.224;2023-06-22T07:57:41;11.82;;;9.55;;
21894;SDS011;11112;51.270;7.224;2023-06-22T08:00:09;14.60;;;9.57;;
21894;SDS011;11112;51.270;7.224;2023-06-22T08:02:40;12.77;;;10.13;;
21894;SDS011;11112;51.270;7.224;2023-06-22T08:05:08;15.18;;;10.13;;
21894;SDS011;11112;51.270;7.224;2023-06-22T08:07:36;12.57;;;10.15;;
21894;SDS011;11112;51.270;7.224;2023-06-22T08:10:04;13.90;;;10.57;;
21894;SDS011;11112;51.270;7.224;2023-06-22T08:12:33;13.80;;;10.10;;
21894;SDS011;11112;51.270;7.224;2023-06-22T08:15:00;13.27;;;9.98;;
21894;SDS011;11112;51.270;7.224;2023-06-22T08:17:29;13.40;;;10.18;;
21894;SDS011;11112;51.270;7.224;2023-06-22T08:19:56;12.60;;;10.00;;
21894;SDS011;11112;51.270;7.224;2023-06-22T08:22:23;10.80;;;8.98;;
21894;SDS011;11112;51.270;7.224;2023-06-22T08:24:51;14.80;;;9.75;;
21894;SDS011;11112;51.270;7.224;2023-06-22T08:27:18;13.45;;;9.43;;
21894;SDS011;11112;51.270;7.224;2023-06-22T08:29:48;9.80;;;8.80;;
21894;SDS011;11112;51.270;7.224;2023-06-22T08:32:16;9.32;;;8.35;;
21894;SDS011;11112;51.270;7.224;2023-06-22T08:34:45;10.10;;;8.70;;
21894;SDS011;11112;51.270;7.224;2023-06-22T08:37:12;11.82;;;9.02;;
21894;SDS011;11112;51.270;7.224;2023-06-22T08:39:39;12.20;;;8.63;;
21894;SDS011;11112;51.270;7.224;2023-06-22T08:42:06;10.57;;;8.60;;
21894;SDS011;11112;51.270;7.224;2023-06-22T08:44:34;10.48;;;8.57;;
21894;SDS011;11112;51.270;7.224;2023-06-22T08:47:01;9.55;;;7.63;;
21894;SDS011;11112;51.270;7.224;2023-06-22T08:49:28;14.80;;;9.38;;
21894;SDS011;11112;51.270;7.224;2023-06-22T08:51:57;12.15;;;9.05;;
21894;SDS011;11112;51.270;7.224;2023-06-22T08:54:24;10.95;;;7.57;;
21894;SDS011;11112;51.270;7.224;2023-06-22T08:56:51;11.05;;;8.27;;
21894;SDS011;11112;51.270;7.224;2023-06-22T08:59:18;9.00;;;7.50;;
21894;SDS011;11112;51.270;7.224;2023-06-22T09:01:45;8.73;;;6.38;;
21894;SDS011;11112;51.270;7.224;2023-06-22T09:04:13;10.00;;;7.20;;
21894;SDS011;11112;51.270;7.224;2023-06-22T09:06:41;11.40;;;7.65;;
21894;SDS011;11112;51.270;7.224;2023-06-22T09:09:13;8.13;;;7.13;;
21894;SDS011;11112;51.270;7.224;2023-06-22T09:11:40;11.70;;;7.20;;
21894;SDS011;11112;51.270;7.224;2023-06-22T09:14:07;11.38;;;7.40;;
21894;SDS011;11112;51.270;7.224;2023-06-22T09:16:35;9.15;;;6.65;;
21894;SDS011;11112;51.270;7.224;2023-06-22T09:19:02;10.30;;;6.72;;
21894;SDS011;11112;51.270;7.224;2023-06-22T09:21:29;9.98;;;7.03;;
21894;SDS011;11112;51.270;7.224;2023-06-22T09:23:57;8.38;;;6.60;;
21894;SDS011;11112;51.270;7.224;2023-06-22T09:26:25;10.57;;;6.57;;
21894;SDS011;11112;51.270;7.224;2023-06-22T09:28:52;8.38;;;5.90;;
21894;SDS011;11112;51.270;7.224;2023-06-22T09:31:20;9.60;;;6.07;;
21894;SDS011;11112;51.270;7.224;2023-06-22T09:33:50;9.32;;;6.30;;
21894;SDS011;11112;51.270;7.224;2023-06-22T09:36:19;10.15;;;5.70;;
21894;SDS011;11112;51.270;7.224;2023-06-22T09:38:47;12.52;;;6.40;;
21894;SDS011;11112;51.270;7.224;2023-06-22T09:41:20;8.32;;;6.30;;
21894;SDS011;11112;51.270;7.224;2023-06-22T09:43:48;10.73;;;6.20;;
21894;SDS011;11112;51.270;7.224;2023-06-22T09:46:16;8.70;;;6.43;;
21894;SDS011;11112;51.270;7.224;2023-06-22T09:48:43;9.35;;;5.97;;
21894;SDS011;11112;51.270;7.224;2023-06-22T09:51:11;8.40;;;6.50;;
21894;SDS011;11112;51.270;7.224;2023-06-22T09:53:38;12.73;;;6.72;;
21894;SDS011;11112;51.270;7.224;2023-06-22T09:56:05;13.05;;;6.72;;
21894;SDS011;11112;51.270;7.224;2023-06-22T09:58:36;9.88;;;6.68;;
21894;SDS011;11112;51.270;7.224;2023-06-22T10:01:04;12.43;;;7.43;;
21894;SDS011;11112;51.270;7.224;2023-06-22T10:03:31;7.28;;;5.90;;
21894;SDS011;11112;51.270;7.224;2023-06-22T10:05:58;7.55;;;6.32;;
21894;SDS011;11112;51.270;7.224;2023-06-22T10:08:26;10.50;;;6.07;;
21894;SDS011;11112;51.270;7.224;2023-06-22T10:10:53;12.63;;;5.90;;
21894;SDS011;11112;51.270;7.224;2023-06-22T10:13:20;7.88;;;5.80;;
21894;SDS011;11112;51.270;7.224;2023-06-22T10:15:47;10.10;;;5.97;;
21894;SDS011;11112;51.270;7.224;2023-06-22T10:18:17;7.68;;;6.20;;
21894;SDS011;11112;51.270;7.224;2023-06-22T10:20:46;8.45;;;6.50;;
21894;SDS011;11112;51.270;7.224;2023-06-22T10:23:16;9.73;;;7.35;;
21894;SDS011;11112;51.270;7.224;2023-06-22T10:25:43;12.13;;;8.05;;
21894;SDS011;11112;51.270;7.224;2023-06-22T10:28:10;7.90;;;6.32;;
21894;SDS011;11112;51.270;7.224;2023-06-22T10:30:38;9.25;;;6.63;;
21894;SDS011;11112;51.270;7.224;2023-06-22T10:33:06;8.48;;;7.05;;
21894;SDS011;11112;51.270;7.224;2023-06-22T10:35:35;10.82;;;6.43;;
21894;SDS011;11112;51.270;7.224;2023-06-22T10:38:03;9.73;;;6.90;;
21894;SDS011;11112;51.270;7.224;2023-06-22T10:40:31;9.50;;;6.60;;
21894;SDS011;11112;51.270;7.224;2023-06-22T10:42:59;10.10;;;6.50;;
21894;SDS011;11112;51.270;7.224;2023-06-22T10:45:26;9.25;;;6.45;;
21894;SDS011;11112;51.270;7.224;2023-06-22T10:47:53;7.93;;;6.30;;
21894;SDS011;11112;51.270;7.224;2023-06-22T10:50:20;9.63;;;6.38;;
21894;SDS011;11112;51.270;7.224;2023-06-22T10:52:50;9.23;;;6.43;;
21894;SDS011;11112;51.270;7.224;2023-06-22T10:55:17;7.47;;;5.95;;
21894;SDS011;11112;51.270;7.224;2023-06-22T10:57:44;8.48;;;6.85;;
21894;SDS011;11112;51.270;7.224;2023-06-22T11:00:12;10.57;;;6.22;;
21894;SDS011;11112;51.270;7.224;2023-06-22T11:02:40;11.35;;;6.55;;
21894;SDS011;11112;51.270;7.224;2023-06-22T11:05:07;11.68;;;6.88;;
21894;SDS011;11112;51.270;7.224;2023-06-22T11:07:35;10.52;;;6.30;;
21894;SDS011;11112;51.270;7.224;2023-06-22T11:10:04;12.00;;;6.95;;
21894;SDS011;11112;51.270;7.224;2023-06-22T11:12:33;10.48;;;7.40;;
21894;SDS011;11112;51.270;7.224;2023-06-22T11:15:00;9.23;;;6.80;;
21894;SDS011;11112;51.270;7.224;2023-06-22T11:17:27;10.95;;;7.10;;
21894;SDS011;11112;51.270;7.224;2023-06-22T11:19:54;11.57;;;6.70;;
21894;SDS011;11112;51.270;7.224;2023-06-22T11:22:21;10.50;;;7.07;;
21894;SDS011;11112;51.270;7.224;2023-06-22T11:24:48;10.15;;;8.13;;
21894;SDS011;11112;51.270;7.224;2023-06-22T11:27:17;12.50;;;7.85;;
21894;SDS011;11112;51.270;7.224;2023-06-22T11:29:44;12.23;;;7.15;;
21894;SDS011;11112;51.270;7.224;2023-06-22T11:32:11;12.63;;;7.53;;
21894;SDS011;11112;51.270;7.224;2023-06-22T11:34:39;12.95;;;7.88;;
21894;SDS011;11112;51.270;7.224;2023-06-22T11:37:06;13.15;;;8.43;;
21894;SDS011;11112;51.270;7.224;2023-06-22T11:39:33;14.05;;;9.65;;
21894;SDS011;11112;51.270;7.224;2023-06-22T11:42:00;15.88;;;9.18;;
21894;SDS011;11112;51.270;7.224;2023-06-22T11:44:28;13.48;;;9.38;;
21894;SDS011;11112;51.270;7.224;2023-06-22T11:46:55;12.60;;;9.10;;
21894;SDS011;11112;51.270;7.224;2023-06-22T11:49:23;15.40;;;9.55;;
21894;SDS011;11112;51.270;7.224;2023-06-22T11:51:50;18.02;;;10.55;;
21894;SDS011;11112;51.270;7.224;2023-06-22T11:54:17;14.93;;;9.73;;
21894;SDS011;11112;51.270;7.224;2023-06-22T11:56:44;15.43;;;9.98;;
21894;SDS011;11112;51.270;7.224;2023-06-22T11:59:11;14.77;;;9.60;;
21894;SDS011;11112;51.270;7.224;2023-06-22T12:01:40;15.65;;;9.63;;
21894;SDS011;11112;51.270;7.224;2023-06-22T12:04:07;14.35;;;9.43;;
21894;SDS011;11112;51.270;7.224;2023-06-22T12:06:37;17.00;;;10.00;;
21894;SDS011;11112;51.270;7.224;2023-06-22T12:09:07;16.55;;;10.60;;
21894;SDS011;11112;51.270;7.224;2023-06-22T12:11:34;15.95;;;10.20;;
21894;SDS011;11112;51.270;7.224;2023-06-22T12:14:01;13.32;;;10.57;;
21894;SDS011;11112;51.270;7.224;2023-06-22T12:16:28;15.18;;;11.07;;
21894;SDS011;11112;51.270;7.224;2023-06-22T12:18:56;17.73;;;11.15;;
21894;SDS011;11112;51.270;7.224;2023-06-22T12:21:23;15.25;;;11.38;;
21894;SDS011;11112;51.270;7.224;2023-06-22T12:23:50;16.88;;;11.88;;
21894;SDS011;11112;51.270;7.224;2023-06-22T12:26:18;15.02;;;11.90;;
21894;SDS011;11112;51.270;7.224;2023-06-22T12:28:45;15.73;;;12.15;;
21894;SDS011;11112;51.270;7.224;2023-06-22T12:31:12;15.25;;;12.23;;
21894;SDS011;11112;51.270;7.224;2023-06-22T12:33:40;17.88;;;12.63;;
21894;SDS011;11112;51.270;7.224;2023-06-22T12:36:09;13.65;;;11.70;;
21894;SDS011;11112;51.270;7.224;2023-06-22T12:38:36;13.80;;;11.10;;
21894;SDS011;11112;51.270;7.224;2023-06-22T12:41:03;16.38;;;11.15;;
21894;SDS011;11112;51.270;7.224;2023-06-22T12:43:30;13.15;;;11.43;;
21894;SDS011;11112;51.270;7.224;2023-06-22T12:45:57;14.93;;;11.63;;
21894;SDS011;11112;51.270;7.224;2023-06-22T12:48:25;15.45;;;12.60;;
21894;SDS011;11112;51.270;7.224;2023-06-22T12:50:53;15.10;;;12.52;;
21894;SDS011;11112;51.270;7.224;2023-06-22T12:53:21;15.27;;;12.07;;
21894;SDS011;11112;51.270;7.224;2023-06-22T12:55:48;14.98;;;12.50;;
21894;SDS011;11112;51.270;7.224;2023-06-22T12:58:16;15.30;;;12.32;;
21894;SDS011;11112;51.270;7.224;2023-06-22T13:00:43;16.38;;;12.98;;
21894;SDS011;11112;51.270;7.224;2023-06-22T13:03:10;15.07;;;11.57;;
21894;SDS011;11112;51.270;7.224;2023-06-22T13:05:37;12.70;;;11.40;;
21894;SDS011;11112;51.270;7.224;2023-06-22T13:08:04;12.43;;;10.85;;
21894;SDS011;11112;51.270;7.224;2023-06-22T13:10:32;12.55;;;10.85;;
21894;SDS011;11112;51.270;7.224;2023-06-22T13:12:59;12.43;;;10.77;;
21894;SDS011;11112;51.270;7.224;2023-06-22T13:15:27;15.18;;;11.30;;
21894;SDS011;11112;51.270;7.224;2023-06-22T13:17:54;13.82;;;11.10;;
21894;SDS011;11112;51.270;7.224;2023-06-22T13:20:22;12.63;;;11.30;;
21894;SDS011;11112;51.270;7.224;2023-06-22T13:22:49;16.73;;;12.10;;
21894;SDS011;11112;51.270;7.224;2023-06-22T13:25:16;12.07;;;10.70;;
21894;SDS011;11112;51.270;7.224;2023-06-22T13:27:46;11.57;;;10.38;;
21894;SDS011;11112;51.270;7.224;2023-06-22T13:30:13;13.15;;;10.95;;
21894;SDS011;11112;51.270;7.224;2023-06-22T13:32:41;14.35;;;10.68;;
21894;SDS011;11112;51.270;7.224;2023-06-22T13:35:08;12.55;;;9.57;;
21894;SDS011;11112;51.270;7.224;2023-06-22T13:37:36;12.80;;;10.48;;
21894;SDS011;11112;51.270;7.224;2023-06-22T13:40:04;13.93;;;10.95;;
21894;SDS011;11112;51.270;7.224;2023-06-22T13:42:32;13.48;;;11.40;;
21894;SDS011;11112;51.270;7.224;2023-06-22T13:45:01;13.35;;;11.02;;
21894;SDS011;11112;51.270;7.224;2023-06-22T13:47:28;10.23;;;8.90;;
21894;SDS011;11112;51.270;7.224;2023-06-22T13:49:56;9.02;;;8.13;;
21894;SDS011;11112;51.270;7.224;2023-06-22T13:52:23;9.15;;;8.10;;
21894;SDS011;11112;51.270;7.224;2023-06-22T13:54:50;8.70;;;7.35;;
21894;SDS011;11112;51.270;7.224;2023-06-22T13:57:18;8.52;;;7.30;;
21894;SDS011;11112;51.270;7.224;2023-06-22T13:59:45;10.75;;;7.53;;
21894;SDS011;11112;51.270;7.224;2023-06-22T14:02:13;9.88;;;8.60;;
21894;SDS011;11112;51.270;7.224;2023-06-22T14:04:40;10.50;;;9.40;;
21894;SDS011;11112;51.270;7.224;2023-06-22T14:07:07;11.05;;;9.60;;
21894;SDS011;11112;51.270;7.224;2023-06-22T14:09:34;12.93;;;9.65;;
21894;SDS011;11112;51.270;7.224;2023-06-22T14:12:05;10.43;;;8.93;;
21894;SDS011;11112;51.270;7.224;2023-06-22T14:14:33;11.45;;;9.00;;
21894;SDS011;11112;51.270;7.224;2023-06-22T14:17:00;10.32;;;8.95;;
21894;SDS011;11112;51.270;7.224;2023-06-22T14:19:29;10.48;;;8.48;;
21894;SDS011;11112;51.270;7.224;2023-06-22T14:21:56;8.98;;;7.93;;
21894;SDS011;11112;51.270;7.224;2023-06-22T14:24:23;8.50;;;6.97;;
21894;SDS011;11112;51.270;7.224;2023-06-22T14:26:50;8.13;;;7.03;;
21894;SDS011;11112;51.270;7.224;2023-06-22T14:29:17;9.82;;;6.75;;
21894;SDS011;11112;51.270;7.224;2023-06-22T14:31:44;8.52;;;7.00;;
21894;SDS011;11112;51.270;7.224;2023-06-22T14:34:12;7.78;;;6.90;;
21894;SDS011;11112;51.270;7.224;2023-06-22T14:36:41;7.95;;;6.18;;
21894;SDS011;11112;51.270;7.224;2023-06-22T14:39:08;7.60;;;6.28;;
21894;SDS011;11112;51.270;7.224;2023-06-22T14:41:35;8.55;;;6.65;;
21894;SDS011;11112;51.270;7.224;2023-06-22T14:44:03;7.18;;;6.47;;
21894;SDS011;11112;51.270;7.224;2023-06-22T14:46:30;8.70;;;7.50;;